Time;durP1;ratioP1;P1;durP2;ratioP2;P2;SDS_P1;SDS_P2;PMS_P1;PMS_P2;Temp;Humidity;BMP_temperature;BMP_pressure;BME280_temperature;BME280_humidity;BME280_pressure;Samples;Min_cycle;Max_cycle;Signal;HPM_P1;HPM_P2
2022/01/25 00:08:24;;;;;;;;;;;;;;;-4.90;52.85;101397.03;5027854;28;20437;-84
2022/01/25 00:15:07;;;;;;;;;;;;;;;-5.14;54.54;101395.19;5025969;28;20118;-84
2022/01/25 00:28:42;;;;;;;;;;;;;;;-5.33;54.15;101398.97;5026540;28;19925;-84
2022/01/25 00:31:16;;;;;;;;;;;;;;;-5.45;55.01;101386.06;5026707;28;19917;-84
2022/01/25 00:33:43;;;;;;;;;;;;;;;-5.52;54.83;101388.94;5024451;28;20720;-84
2022/01/25 00:36:10;;;;;;;;;;;;;;;-5.64;55.14;101362.28;5025417;28;19917;-84
2022/01/25 00:38:35;;;;;;;;;;;;;;;-5.48;54.83;101390.09;5025309;28;20016;-84
2022/01/25 00:41:01;;;;;;;;;;;;;;;-5.31;54.79;101392.25;5025437;28;19917;-84
2022/01/25 00:43:27;;;;;;;;;;;;;;;-5.63;55.06;101395.84;5026620;28;19917;-84
2022/01/25 00:45:56;;;;;;;;;;;;;;;-5.27;54.88;101398.53;5026471;28;19982;-84
2022/01/25 00:48:32;;;;;;;;;;;;;;;-5.33;54.10;101400.63;5027031;28;19913;-84
2022/01/25 00:56:24;;;;;;;;;;;;;;;-5.44;55.00;101397.25;5027165;28;19963;-84
2022/01/25 00:58:49;;;;;;;;;;;;;;;-5.42;55.10;101395.72;5026300;28;19977;-84
2022/01/25 01:01:15;;;;;;;;;;;;;;;-5.56;55.27;101389.50;5025735;28;19912;-84
2022/01/25 01:03:40;;;;;;;;;;;;;;;-5.62;56.50;101389.91;5026788;28;19922;-84
2022/01/25 01:06:06;;;;;;;;;;;;;;;-5.43;56.05;101401.63;5024639;28;19920;-84
2022/01/25 01:08:32;;;;;;;;;;;;;;;-5.41;55.80;101385.53;5026608;28;19913;-84
2022/01/25 01:11:00;;;;;;;;;;;;;;;-5.43;55.89;101388.75;5026464;28;19920;-84
2022/01/25 01:29:49;;;;;;;;;;;;;;;-5.44;55.71;101375.00;5006135;28;19948;-84
2022/01/25 01:32:37;;;;;;;;;;;;;;;-5.61;56.26;101376.31;5014428;28;19916;-84
2022/01/25 01:38:16;;;;;;;;;;;;;;;-5.61;56.15;101366.00;5027028;28;20004;-84
2022/01/25 01:48:51;;;;;;;;;;;;;;;-5.36;55.87;101357.59;5016020;28;19944;-86
2022/01/25 01:51:26;;;;;;;;;;;;;;;-5.46;55.71;101358.53;5026740;28;19909;-85
2022/01/25 01:53:52;;;;;;;;;;;;;;;-5.36;55.68;101352.44;5007093;28;19917;-84
2022/01/25 01:56:18;;;;;;;;;;;;;;;-5.24;55.82;101355.03;5038374;28;20007;-84
2022/01/25 01:58:43;;;;;;;;;;;;;;;-5.34;55.37;101349.97;5007015;28;20011;-84
2022/01/25 02:01:11;;;;;;;;;;;;;;;-5.46;55.34;101348.25;5021098;28;19917;-85
2022/01/25 02:03:36;;;;;;;;;;;;;;;-5.72;55.53;101351.41;5025674;28;19917;-85
2022/01/25 02:06:03;;;;;;;;;;;;;;;-5.74;56.23;101349.53;5026141;28;19913;-85
2022/01/25 02:08:28;;;;;;;;;;;;;;;-5.79;55.84;101346.59;5025014;28;20334;-85
2022/01/25 02:10:54;;;;;;;;;;;;;;;-5.70;55.76;101343.81;5025034;28;19921;-85
2022/01/25 02:13:19;;;;;;;;;;;;;;;-5.96;56.38;101335.91;5026377;28;20290;-84
2022/01/25 02:15:46;;;;;;;;;;;;;;;-5.88;56.30;101338.19;5026380;28;19909;-85
2022/01/25 02:23:37;;;;;;;;;;;;;;;-5.93;56.39;101336.13;5024863;28;20414;-86
2022/01/25 02:26:04;;;;;;;;;;;;;;;-6.05;57.75;101340.38;5025897;28;19909;-85
2022/01/25 02:28:31;;;;;;;;;;;;;;;-5.90;57.36;101338.06;5025969;28;19920;-85
2022/01/25 02:30:57;;;;;;;;;;;;;;;-5.86;56.92;101329.78;5025586;28;20011;-85
2022/01/25 02:33:23;;;;;;;;;;;;;;;-5.81;56.24;101322.44;5025970;28;20071;-84
2022/01/25 02:35:48;;;;;;;;;;;;;;;-5.93;57.00;101327.53;5026839;28;19928;-84
2022/01/25 02:38:19;;;;;;;;;;;;;;;-5.86;56.91;101318.63;5026181;28;19917;-85
2022/01/25 02:40:44;;;;;;;;;;;;;;;-5.94;56.60;101324.06;5027814;28;19940;-85
2022/01/25 02:43:09;;;;;;;;;;;;;;;-5.77;56.16;101314.19;5030977;28;20672;-84
2022/01/25 02:45:36;;;;;;;;;;;;;;;-5.94;56.46;101318.03;5030273;28;20637;-84
2022/01/25 02:50:48;;;;;;;;;;;;;;;-6.06;56.71;101314.56;5029872;28;19924;-84
2022/01/25 02:53:13;;;;;;;;;;;;;;;-6.16;56.35;101313.84;5030032;28;20441;-84
2022/01/25 02:55:39;;;;;;;;;;;;;;;-6.09;56.70;101315.19;5030399;28;19913;-84
2022/01/25 02:58:05;;;;;;;;;;;;;;;-6.16;56.56;101312.94;5029831;28;19967;-84
2022/01/25 03:00:31;;;;;;;;;;;;;;;-6.18;56.59;101309.34;5029988;28;19917;-85
2022/01/25 03:02:56;;;;;;;;;;;;;;;-6.20;56.68;101310.91;5029824;28;20293;-84
2022/01/25 03:05:22;;;;;;;;;;;;;;;-6.13;56.56;101311.50;5029710;28;19963;-85
2022/01/25 03:07:47;;;;;;;;;;;;;;;-6.15;56.59;101309.59;5030041;28;20371;-84
2022/01/25 03:10:13;;;;;;;;;;;;;;;-6.31;57.03;101304.94;5029454;28;19909;-85
2022/01/25 03:12:52;;;;;;;;;;;;;;;-6.30;56.56;101302.47;5029841;28;19913;-85
2022/01/25 03:17:59;;;;;;;;;;;;;;;-6.28;56.97;101288.88;5029122;28;19943;-84
2022/01/25 03:20:47;;;;;;;;;;;;;;;-6.58;56.56;101280.53;5028810;28;20384;-85
2022/01/25 03:23:21;;;;;;;;;;;;;;;-6.68;57.04;101276.34;5027037;28;19967;-84
2022/01/25 03:25:47;;;;;;;;;;;;;;;-6.95;57.35;101275.03;5029581;28;19916;-85
2022/01/25 03:28:13;;;;;;;;;;;;;;;-6.83;57.29;101270.88;5028300;28;20615;-84
2022/01/25 03:30:38;;;;;;;;;;;;;;;-6.99;57.43;101263.66;5026437;28;19929;-84
2022/01/25 03:33:04;;;;;;;;;;;;;;;-7.06;58.45;101262.25;5029416;28;20364;-84
2022/01/25 03:35:29;;;;;;;;;;;;;;;-6.87;58.19;101258.59;5028545;28;19909;-86
2022/01/25 03:37:54;;;;;;;;;;;;;;;-6.77;57.10;101248.28;5029396;28;19913;-85
2022/01/25 03:40:20;;;;;;;;;;;;;;;-6.96;57.78;101247.59;5027819;28;19924;-85
2022/01/25 03:42:46;;;;;;;;;;;;;;;-7.06;58.39;101252.00;5028837;28;19912;-85
2022/01/25 03:45:18;;;;;;;;;;;;;;;-6.95;57.77;101239.13;5027962;28;19913;-85
2022/01/25 03:47:57;;;;;;;;;;;;;;;-7.05;58.15;101240.06;5029403;28;19963;-85
2022/01/25 03:50:22;;;;;;;;;;;;;;;-6.80;57.93;101234.31;5027846;28;19939;-85
2022/01/25 03:52:47;;;;;;;;;;;;;;;-6.88;57.85;101226.00;5026240;28;19917;-85
2022/01/25 03:55:13;;;;;;;;;;;;;;;-6.68;57.48;101222.44;5028560;28;19909;-86
2022/01/25 03:57:38;;;;;;;;;;;;;;;-6.71;57.80;101214.50;5029271;28;19967;-85
2022/01/25 04:00:04;;;;;;;;;;;;;;;-6.76;57.31;101221.84;5027663;28;20011;-84
2022/01/25 04:02:32;;;;;;;;;;;;;;;-6.70;56.90;101218.88;5028350;28;20012;-85
2022/01/25 04:04:59;;;;;;;;;;;;;;;-6.74;58.00;101216.84;5027440;28;20323;-85
2022/01/25 04:07:31;;;;;;;;;;;;;;;-6.59;57.44;101212.91;5028824;28;19963;-85
2022/01/25 04:09:56;;;;;;;;;;;;;;;-6.52;56.36;101204.00;5027464;28;20641;-85
2022/01/25 04:12:22;;;;;;;;;;;;;;;-6.60;57.19;101202.50;5026628;28;19917;-84
2022/01/25 04:14:47;;;;;;;;;;;;;;;-6.68;57.14;101207.94;5028282;28;19909;-82
2022/01/25 04:17:18;;;;;;;;;;;;;;;-6.72;57.69;101194.75;5028269;28;20359;-81
2022/01/25 04:19:47;;;;;;;;;;;;;;;-6.66;57.64;101197.78;5028278;28;19917;-82
2022/01/25 04:27:30;;;;;;;;;;;;;;;-6.57;56.92;101205.31;5027693;28;20341;-82
2022/01/25 04:29:56;;;;;;;;;;;;;;;-6.50;56.46;101207.59;5026331;28;20007;-82
2022/01/25 04:32:32;;;;;;;;;;;;;;;-6.53;56.11;101208.25;5027939;28;19987;-82
2022/01/25 04:35:10;;;;;;;;;;;;;;;-6.60;56.51;101205.06;5028266;28;19928;-82
2022/01/25 04:49:18;;;;;;;;;;;;;;;-6.72;55.88;101213.63;5026440;28;19926;-84
2022/01/25 04:54:22;;;;;;;;;;;;;;;-6.56;56.67;101201.97;5027289;28;20051;-85
2022/01/25 04:59:30;;;;;;;;;;;;;;;-6.61;54.95;101200.72;5027399;28;19924;-84
2022/01/25 05:02:02;;;;;;;;;;;;;;;-6.81;55.10;101205.19;5025779;28;19939;-84
2022/01/25 05:04:33;;;;;;;;;;;;;;;-6.84;55.60;101205.84;5027425;28;19929;-84
2022/01/25 05:07:08;;;;;;;;;;;;;;;-6.60;55.26;101202.50;5027272;28;20418;-91
2022/01/25 05:09:35;;;;;;;;;;;;;;;-6.51;54.71;101198.09;5026668;28;19923;-84
2022/01/25 05:12:02;;;;;;;;;;;;;;;-6.73;54.71;101198.97;5023653;28;19925;-85
2022/01/25 05:14:33;;;;;;;;;;;;;;;-6.56;54.72;101210.56;5023997;28;19917;-85
2022/01/25 05:17:02;;;;;;;;;;;;;;;-6.52;55.04;101211.69;5023250;28;20655;-86
2022/01/25 05:24:44;;;;;;;;;;;;;;;-6.73;54.81;101216.06;5027553;28;19936;-86
2022/01/25 05:27:11;;;;;;;;;;;;;;;-6.79;55.08;101219.03;5025164;28;19971;-86
2022/01/25 05:29:37;;;;;;;;;;;;;;;-7.18;55.09;101211.63;5026856;28;19917;-85
2022/01/25 05:32:02;;;;;;;;;;;;;;;-7.51;57.28;101218.38;5027027;28;19932;-86
2022/01/25 05:34:27;;;;;;;;;;;;;;;-7.86;58.05;101224.06;5025721;28;20359;-86
2022/01/25 05:36:53;;;;;;;;;;;;;;;-7.82;57.38;101216.75;5027080;28;19948;-85
2022/01/25 05:39:24;;;;;;;;;;;;;;;-7.76;56.93;101224.94;5026747;28;19924;-85
2022/01/25 05:41:59;;;;;;;;;;;;;;;-7.88;57.51;101231.63;5024962;28;20008;-86
2022/01/25 05:47:13;;;;;;;;;;;;;;;-7.57;57.90;101218.78;5019127;28;20003;-87
2022/01/25 05:49:38;;;;;;;;;;;;;;;-7.44;57.80;101215.56;5021753;28;19920;-86
2022/01/25 05:52:04;;;;;;;;;;;;;;;-7.28;57.19;101227.94;5025336;28;19920;-82
2022/01/25 05:54:30;;;;;;;;;;;;;;;-7.27;58.54;101225.50;5025576;28;19933;-82
2022/01/25 05:56:55;;;;;;;;;;;;;;;-7.20;58.26;101232.03;5026173;28;19909;-81
2022/01/25 05:59:21;;;;;;;;;;;;;;;-6.99;58.40;101226.84;5026321;28;19920;-82
2022/01/25 06:01:46;;;;;;;;;;;;;;;-7.09;58.56;101231.22;5025165;28;20104;-81
2022/01/25 06:04:12;;;;;;;;;;;;;;;-7.02;58.74;101225.78;5025973;28;19913;-83
2022/01/25 06:06:37;;;;;;;;;;;;;;;-7.08;58.95;101215.03;5025989;28;19963;-82
2022/01/25 06:09:03;;;;;;;;;;;;;;;-6.86;59.03;101214.19;5026497;28;20264;-83
2022/01/25 06:11:28;;;;;;;;;;;;;;;-6.68;57.89;101201.91;5026122;28;20446;-83
2022/01/25 06:13:53;;;;;;;;;;;;;;;-6.35;57.15;101195.00;5025813;28;19979;-82
2022/01/25 06:16:19;;;;;;;;;;;;;;;-6.15;56.31;101192.31;5026181;28;19909;-83
2022/01/25 06:18:45;;;;;;;;;;;;;;;-5.98;55.67;101195.25;5025847;28;20288;-82
2022/01/25 06:21:10;;;;;;;;;;;;;;;-6.03;54.83;101197.47;5025877;28;20067;-81
2022/01/25 06:23:36;;;;;;;;;;;;;;;-6.03;55.01;101186.31;5026424;28;20361;-81
2022/01/25 06:26:01;;;;;;;;;;;;;;;-5.65;54.11;101181.41;5025634;28;20320;-82
2022/01/25 06:28:26;;;;;;;;;;;;;;;-5.67;54.02;101177.84;5026090;28;19917;-81
2022/01/25 06:30:52;;;;;;;;;;;;;;;-5.26;52.96;101189.34;5026315;28;19967;-82
2022/01/25 06:33:18;;;;;;;;;;;;;;;-5.24;52.38;101198.94;5026116;28;19963;-82
2022/01/25 06:35:47;;;;;;;;;;;;;;;-4.93;52.17;101189.97;5026383;28;19921;-82
2022/01/25 06:38:13;;;;;;;;;;;;;;;-4.99;52.15;101186.97;5025848;28;19959;-83
2022/01/25 06:40:38;;;;;;;;;;;;;;;-4.69;52.71;101190.81;5023815;28;20329;-82
2022/01/25 06:43:04;;;;;;;;;;;;;;;-4.54;52.24;101181.59;5024971;28;19967;-82
2022/01/25 06:45:29;;;;;;;;;;;;;;;-4.53;52.54;101183.34;5026434;28;20439;-93
2022/01/25 06:47:55;;;;;;;;;;;;;;;-4.41;52.14;101185.00;5023709;28;19940;-79
2022/01/25 06:50:23;;;;;;;;;;;;;;;-4.18;51.69;101181.44;5025347;28;20371;-81
2022/01/25 06:52:49;;;;;;;;;;;;;;;-4.19;51.41;101179.63;5025570;28;19913;-85
2022/01/25 06:55:15;;;;;;;;;;;;;;;-4.19;51.99;101177.06;5025919;28;19917;-83
2022/01/25 06:57:41;;;;;;;;;;;;;;;-3.91;51.78;101174.66;5026198;28;19913;-83
2022/01/25 07:00:11;;;;;;;;;;;;;;;-3.72;50.96;101171.63;5025649;28;20379;-83
2022/01/25 07:02:36;;;;;;;;;;;;;;;-3.87;50.14;101168.91;5024032;28;19931;-83
2022/01/25 07:05:03;;;;;;;;;;;;;;;-3.85;49.58;101169.00;5025945;28;19913;-82
2022/01/25 07:07:29;;;;;;;;;;;;;;;-3.72;50.29;101160.38;5026111;28;19948;-83
2022/01/25 07:09:54;;;;;;;;;;;;;;;-3.53;47.73;101165.09;5025126;28;20368;-82
2022/01/25 07:12:20;;;;;;;;;;;;;;;-3.65;48.75;101170.31;5025798;28;19971;-83
2022/01/25 07:14:45;;;;;;;;;;;;;;;-3.57;47.52;101170.84;5025991;28;20290;-82
2022/01/25 07:17:10;;;;;;;;;;;;;;;-3.66;48.17;101171.13;5025311;28;19913;-82
2022/01/25 07:19:35;;;;;;;;;;;;;;;-3.41;47.77;101165.88;5025352;28;19917;-84
2022/01/25 07:22:01;;;;;;;;;;;;;;;-3.56;46.27;101170.06;5024816;28;19971;-82
2022/01/25 07:24:26;;;;;;;;;;;;;;;-3.43;47.58;101154.56;5025726;28;19909;-82
2022/01/25 07:26:51;;;;;;;;;;;;;;;-3.59;46.07;101150.09;5028615;28;19904;-82
2022/01/25 07:29:17;;;;;;;;;;;;;;;-3.33;46.24;101156.94;5029650;28;19916;-82
2022/01/25 07:31:42;;;;;;;;;;;;;;;-3.45;46.17;101151.00;5029095;28;19919;-82
2022/01/25 07:34:08;;;;;;;;;;;;;;;-3.10;46.32;101148.09;5029649;28;19919;-82
2022/01/25 07:36:36;;;;;;;;;;;;;;;-2.78;46.79;101154.38;5029518;28;20271;-82
2022/01/25 07:39:01;;;;;;;;;;;;;;;-2.73;45.74;101154.66;5029527;28;19919;-82
2022/01/25 07:41:27;;;;;;;;;;;;;;;-3.01;45.52;101154.59;5029274;28;19913;-83
2022/01/25 07:43:52;;;;;;;;;;;;;;;-3.07;44.68;101153.44;5029344;28;20314;-82
2022/01/25 07:46:17;;;;;;;;;;;;;;;-3.02;44.88;101143.41;5029184;28;20269;-82
2022/01/25 07:48:43;;;;;;;;;;;;;;;-2.95;46.47;101145.59;5028387;28;20651;-82
2022/01/25 07:51:08;;;;;;;;;;;;;;;-2.41;45.80;101142.78;5029090;28;20692;-83
2022/01/25 07:53:33;;;;;;;;;;;;;;;-2.01;46.49;101128.00;5026999;28;20735;-82
2022/01/25 07:55:59;;;;;;;;;;;;;;;-2.20;44.19;101136.31;5025092;28;19909;-86
2022/01/25 07:58:24;;;;;;;;;;;;;;;-2.29;45.63;101138.38;5028433;28;20027;-85
2022/01/25 08:00:50;;;;;;;;;;;;;;;-2.24;44.63;101143.81;5028865;28;20000;-85
2022/01/25 08:03:18;;;;;;;;;;;;;;;-2.36;43.60;101147.47;5029079;28;19971;-87
2022/01/25 08:05:45;;;;;;;;;;;;;;;-2.26;44.33;101143.72;5028208;28;19948;-87
2022/01/25 08:08:11;;;;;;;;;;;;;;;-2.44;44.09;101135.78;5060106;28;19960;-87
2022/01/25 08:10:36;;;;;;;;;;;;;;;-2.52;43.71;101136.97;5030205;28;19941;-93
2022/01/25 08:13:01;;;;;;;;;;;;;;;-2.35;45.15;101126.00;5060643;28;19967;-90
2022/01/25 08:15:27;;;;;;;;;;;;;;;-2.34;43.87;101137.22;5028803;28;19913;-86
2022/01/25 08:17:52;;;;;;;;;;;;;;;-2.23;43.47;101132.69;5028186;28;20761;-85
2022/01/25 08:20:18;;;;;;;;;;;;;;;-2.06;42.93;101133.69;5027954;28;19913;-84
2022/01/25 08:22:44;;;;;;;;;;;;;;;-1.73;41.84;101137.34;5028384;28;19913;-84
2022/01/25 08:25:10;;;;;;;;;;;;;;;-1.64;41.11;101134.38;5026981;28;19940;-85
2022/01/25 08:27:35;;;;;;;;;;;;;;;-1.71;41.46;101127.09;5028267;28;19913;-86
2022/01/25 08:30:01;;;;;;;;;;;;;;;-1.80;41.40;101122.25;5027212;28;19913;-86
2022/01/25 08:32:26;;;;;;;;;;;;;;;-1.95;41.96;101129.13;5028434;28;19920;-87
2022/01/25 08:34:51;;;;;;;;;;;;;;;-2.07;41.47;101119.88;5027184;28;19925;-87
2022/01/25 08:37:17;;;;;;;;;;;;;;;-1.89;43.53;101108.81;5022965;28;19913;-84
2022/01/25 08:39:42;;;;;;;;;;;;;;;-1.87;41.54;101112.34;5008582;28;19962;-83
2022/01/25 08:42:08;;;;;;;;;;;;;;;-1.94;41.17;101112.81;5023374;28;19913;-92
2022/01/25 08:44:34;;;;;;;;;;;;;;;-2.07;41.69;101117.28;5007631;28;20367;-88
2022/01/25 08:46:59;;;;;;;;;;;;;;;-1.99;41.46;101116.03;5023385;28;19920;-82
2022/01/25 08:49:25;;;;;;;;;;;;;;;-2.09;41.17;101116.28;5019133;28;19913;-84
2022/01/25 08:51:50;;;;;;;;;;;;;;;-2.05;41.87;101118.25;5026853;28;20814;-85
2022/01/25 08:54:16;;;;;;;;;;;;;;;-2.00;41.58;101109.06;5026941;28;19913;-84
2022/01/25 08:56:42;;;;;;;;;;;;;;;-1.96;41.73;101114.41;5025369;28;19917;-83
2022/01/25 08:59:08;;;;;;;;;;;;;;;-1.88;42.30;101110.59;5025599;28;19951;-84
2022/01/25 09:01:34;;;;;;;;;;;;;;;-1.96;41.72;101099.81;5024142;28;20041;-86
2022/01/25 09:04:00;;;;;;;;;;;;;;;-2.09;41.02;101099.88;5023730;28;20276;-82
2022/01/25 09:06:26;;;;;;;;;;;;;;;-2.23;41.67;101091.31;5023061;28;20015;-84
2022/01/25 09:08:51;;;;;;;;;;;;;;;-1.99;41.40;101099.63;5024122;28;20314;-84
2022/01/25 09:11:17;;;;;;;;;;;;;;;-1.93;40.61;101088.72;5027323;28;19912;-83
2022/01/25 09:13:42;;;;;;;;;;;;;;;-1.79;41.49;101087.84;5027472;28;19908;-82
2022/01/25 09:16:08;;;;;;;;;;;;;;;-1.81;40.70;101084.25;5027279;28;19912;-83
2022/01/25 09:18:34;;;;;;;;;;;;;;;-1.67;40.62;101077.28;5025397;28;19905;-83
2022/01/25 09:21:00;;;;;;;;;;;;;;;-1.67;40.82;101070.41;5026867;28;19920;-83
2022/01/25 09:23:26;;;;;;;;;;;;;;;-1.57;41.05;101074.41;5025895;28;19916;-83
2022/01/25 09:25:52;;;;;;;;;;;;;;;-1.58;39.90;101063.97;5026815;28;19967;-82
2022/01/25 09:28:17;;;;;;;;;;;;;;;-1.66;40.38;101058.38;5027278;28;19913;-82
2022/01/25 09:30:42;;;;;;;;;;;;;;;-1.51;40.38;101047.97;5026927;28;19909;-84
2022/01/25 09:33:08;;;;;;;;;;;;;;;-1.63;40.06;101049.06;5026793;28;19909;-83
2022/01/25 09:35:33;;;;;;;;;;;;;;;-1.46;40.01;101049.13;5025905;28;19939;-83
2022/01/25 09:37:59;;;;;;;;;;;;;;;-1.18;39.71;101045.44;5026874;28;19913;-83
2022/01/25 09:40:24;;;;;;;;;;;;;;;-1.14;40.61;101045.69;5026493;28;19917;-84
2022/01/25 09:42:52;;;;;;;;;;;;;;;-1.12;39.96;101041.47;5026362;28;19909;-84
2022/01/25 09:45:18;;;;;;;;;;;;;;;-1.21;39.25;101034.91;5027036;28;19915;-82
2022/01/25 09:47:44;;;;;;;;;;;;;;;-1.11;39.55;101019.97;5025997;28;19909;-80
2022/01/25 09:50:09;;;;;;;;;;;;;;;-1.04;40.00;101038.41;5026145;28;19913;-82
2022/01/25 09:52:35;;;;;;;;;;;;;;;-1.00;40.05;101011.88;5026864;28;19963;-80
2022/01/25 09:55:01;;;;;;;;;;;;;;;-0.83;38.92;101016.22;5026836;28;20015;-82
2022/01/25 09:57:27;;;;;;;;;;;;;;;-0.89;39.24;101009.84;5026683;28;19963;-82
2022/01/25 09:59:53;;;;;;;;;;;;;;;-0.82;38.57;101015.44;5027327;28;19912;-82
2022/01/25 10:02:40;;;;;;;;;;;;;;;-0.69;39.06;101001.41;5025757;28;19963;-82
2022/01/25 10:05:36;;;;;;;;;;;;;;;-0.72;38.42;100990.88;5024547;28;19914;-81
2022/01/25 10:08:01;;;;;;;;;;;;;;;-0.75;37.51;100988.13;5016381;28;19960;-81
2022/01/25 10:10:27;;;;;;;;;;;;;;;-0.36;38.53;100985.75;5024831;28;20538;-82
2022/01/25 10:12:54;;;;;;;;;;;;;;;-0.50;38.57;100984.19;5024151;28;19951;-82
2022/01/25 10:15:19;;;;;;;;;;;;;;;-0.49;37.36;100979.06;5024970;28;19979;-82
2022/01/25 10:17:45;;;;;;;;;;;;;;;-0.26;38.23;100976.75;5024331;28;20349;-83
2022/01/25 10:20:27;;;;;;;;;;;;;;;0.12;39.35;100972.50;5024040;28;19913;-83
2022/01/25 10:22:52;;;;;;;;;;;;;;;-0.10;37.76;100968.88;5025259;28;20027;-81
2022/01/25 10:25:43;;;;;;;;;;;;;;;0.02;38.32;100966.00;5024303;28;20027;-81
2022/01/25 10:28:13;;;;;;;;;;;;;;;0.10;36.73;100959.47;5008914;28;19913;-81
2022/01/25 10:30:41;;;;;;;;;;;;;;;0.24;37.93;100959.22;5026302;28;20455;-81
2022/01/25 10:33:17;;;;;;;;;;;;;;;0.28;37.34;100955.94;5026523;28;19913;-82
2022/01/25 10:35:43;;;;;;;;;;;;;;;-0.03;37.02;100952.81;5024290;28;19995;-80
2022/01/25 10:38:19;;;;;;;;;;;;;;;-0.02;37.34;100949.41;5025030;28;20723;-80
2022/01/25 10:40:52;;;;;;;;;;;;;;;0.27;37.63;100954.19;5025670;28;19951;-79
2022/01/25 10:43:20;;;;;;;;;;;;;;;-0.11;36.13;100945.47;5025726;28;20360;-80
2022/01/25 10:45:45;;;;;;;;;;;;;;;0.12;37.10;100937.06;5026157;28;19913;-82
2022/01/25 10:48:11;;;;;;;;;;;;;;;0.48;36.92;100929.22;5025878;28;19924;-82
2022/01/25 10:50:39;;;;;;;;;;;;;;;0.29;36.46;100914.47;5024330;28;19992;-81
2022/01/25 10:53:09;;;;;;;;;;;;;;;0.34;34.00;100919.88;5025995;28;19917;-80
2022/01/25 10:55:36;;;;;;;;;;;;;;;0.29;34.64;100908.41;5026176;28;19913;-82
2022/01/25 10:58:03;;;;;;;;;;;;;;;0.09;33.51;100913.56;5024683;28;20024;-80
2022/01/25 11:00:33;;;;;;;;;;;;;;;0.42;35.25;100909.84;5026234;28;20083;-81
2022/01/25 11:02:58;;;;;;;;;;;;;;;0.28;34.23;100889.38;5029601;28;19963;-81
2022/01/25 11:05:24;;;;;;;;;;;;;;;0.48;34.18;100904.94;5029796;28;19919;-83
2022/01/25 11:07:49;;;;;;;;;;;;;;;0.46;33.84;100899.66;5030005;28;20461;-82
2022/01/25 11:10:17;;;;;;;;;;;;;;;0.56;35.43;100895.81;5030464;28;19920;-81
2022/01/25 11:12:58;;;;;;;;;;;;;;;0.85;34.21;100880.59;5029623;28;19920;-81
2022/01/25 11:15:23;;;;;;;;;;;;;;;0.83;35.19;100874.44;5029716;28;19917;-82
2022/01/25 11:17:49;;;;;;;;;;;;;;;0.93;34.90;100873.13;5029439;28;19920;-83
2022/01/25 11:20:14;;;;;;;;;;;;;;;0.89;35.48;100869.53;5029964;28;19924;-81
2022/01/25 11:22:40;;;;;;;;;;;;;;;0.81;34.24;100865.72;5029859;28;19920;-82
2022/01/25 11:25:06;;;;;;;;;;;;;;;0.83;33.88;100854.53;5029769;28;19919;-83
2022/01/25 11:27:32;;;;;;;;;;;;;;;0.91;34.52;100852.28;5029692;28;19964;-83
2022/01/25 11:29:59;;;;;;;;;;;;;;;0.69;34.25;100853.94;5029236;28;20375;-82
2022/01/25 11:32:31;;;;;;;;;;;;;;;1.01;34.52;100850.97;5029269;28;19917;-82
2022/01/25 11:34:57;;;;;;;;;;;;;;;1.05;34.09;100835.56;5029434;28;19909;-82
2022/01/25 11:37:43;;;;;;;;;;;;;;;0.89;33.51;100841.81;5029800;28;19917;-82
2022/01/25 11:40:23;;;;;;;;;;;;;;;1.20;34.86;100835.28;5027201;28;19917;-82
2022/01/25 11:42:50;;;;;;;;;;;;;;;1.06;32.81;100833.84;5028829;28;19946;-83
2022/01/25 11:45:19;;;;;;;;;;;;;;;1.09;33.91;100828.78;5029343;28;19952;-83
2022/01/25 11:47:47;;;;;;;;;;;;;;;1.31;33.80;100829.66;5029117;28;19950;-82
2022/01/25 11:50:12;;;;;;;;;;;;;;;1.22;33.25;100815.47;5028706;28;19945;-83
2022/01/25 11:52:54;;;;;;;;;;;;;;;1.15;33.99;100816.03;5028276;28;20006;-83
2022/01/25 11:55:25;;;;;;;;;;;;;;;1.40;33.67;100822.22;5026961;28;20367;-82
2022/01/25 11:57:55;;;;;;;;;;;;;;;1.30;33.63;100820.97;5027618;28;19913;-83
2022/01/25 12:00:21;;;;;;;;;;;;;;;1.30;33.76;100815.78;5029351;28;19909;-83
2022/01/25 12:02:51;;;;;;;;;;;;;;;1.10;34.24;100807.19;5028546;28;19913;-83
2022/01/25 12:05:24;;;;;;;;;;;;;;;0.98;34.30;100801.47;5028376;28;20383;-83
2022/01/25 12:08:10;;;;;;;;;;;;;;;1.16;33.72;100798.72;5025235;28;19917;-82
2022/01/25 12:10:39;;;;;;;;;;;;;;;1.33;34.27;100804.59;5028642;28;19955;-82
2022/01/25 12:13:27;;;;;;;;;;;;;;;1.55;32.75;100791.63;5026533;28;19978;-82
2022/01/25 12:16:11;;;;;;;;;;;;;;;1.58;32.67;100801.28;5028393;28;20007;-84
2022/01/25 12:18:52;;;;;;;;;;;;;;;1.57;33.56;100782.16;5029004;28;19909;-82
2022/01/25 12:21:37;;;;;;;;;;;;;;;1.42;33.19;100794.56;5028534;28;19933;-83
2022/01/25 12:24:21;;;;;;;;;;;;;;;1.56;33.23;100788.22;5025134;28;20033;-82
2022/01/25 12:27:04;;;;;;;;;;;;;;;1.19;32.10;100784.16;5027452;28;20291;-83
2022/01/25 12:29:34;;;;;;;;;;;;;;;1.19;31.80;100784.16;5027288;28;20311;-83
2022/01/25 12:32:20;;;;;;;;;;;;;;;1.22;32.32;100796.38;5026510;28;19912;-83
2022/01/25 12:34:57;;;;;;;;;;;;;;;1.11;32.07;100777.75;5024701;28;20387;-82
2022/01/25 12:37:41;;;;;;;;;;;;;;;1.39;31.73;100779.75;5021875;28;20459;-82
2022/01/25 12:40:25;;;;;;;;;;;;;;;1.46;31.70;100775.66;5023307;28;19998;-83
2022/01/25 12:43:01;;;;;;;;;;;;;;;1.47;31.30;100772.25;5027232;28;19951;-84
2022/01/25 12:45:28;;;;;;;;;;;;;;;1.50;31.62;100769.78;5027192;28;19920;-84
2022/01/25 12:47:55;;;;;;;;;;;;;;;1.36;30.24;100776.13;5027273;28;19971;-85
2022/01/25 12:50:20;;;;;;;;;;;;;;;1.28;30.84;100770.63;5019695;28;19952;-83
2022/01/25 12:52:46;;;;;;;;;;;;;;;1.41;31.54;100762.50;5021929;28;20079;-84
2022/01/25 12:55:12;;;;;;;;;;;;;;;1.46;30.96;100757.47;5027616;28;19913;-83
2022/01/25 12:57:44;;;;;;;;;;;;;;;1.50;31.60;100754.16;5025031;28;19939;-84
2022/01/25 13:00:09;;;;;;;;;;;;;;;1.33;30.71;100753.50;5024899;28;19932;-83
2022/01/25 13:02:35;;;;;;;;;;;;;;;1.21;30.82;100745.22;5010760;28;19913;-84
2022/01/25 13:05:00;;;;;;;;;;;;;;;1.63;31.49;100750.31;5024966;28;19913;-84
2022/01/25 13:07:26;;;;;;;;;;;;;;;1.84;31.57;100746.72;5024989;28;20435;-84
2022/01/25 13:09:54;;;;;;;;;;;;;;;1.73;30.68;100749.84;5021717;28;19920;-83
2022/01/25 13:12:29;;;;;;;;;;;;;;;1.76;31.03;100744.75;5023646;28;19917;-84
2022/01/25 13:15:25;;;;;;;;;;;;;;;1.56;31.50;100745.69;5024570;28;19916;-81
2022/01/25 13:17:48;;;;;;;;;;;;;;;1.89;31.15;100735.69;5026146;28;19909;-82
2022/01/25 13:20:14;;;;;;;;;;;;;;;1.81;31.91;100741.41;5026607;28;19917;-83
2022/01/25 13:22:42;;;;;;;;;;;;;;;1.68;30.70;100729.69;5021314;28;19920;-83
2022/01/25 13:27:35;;;;;;;;;;;;;;;1.71;31.46;100724.59;5012749;28;19908;-82
2022/01/25 13:32:47;;;;;;;;;;;;;;;1.42;30.70;100722.66;5025607;28;19924;-83
2022/01/25 13:35:18;;;;;;;;;;;;;;;1.42;30.13;100725.28;5026975;28;19909;-83
2022/01/25 13:37:44;;;;;;;;;;;;;;;1.40;30.87;100720.81;5026539;28;19967;-83
2022/01/25 13:40:12;;;;;;;;;;;;;;;1.58;30.92;100725.84;5022687;28;20709;-84
2022/01/25 13:45:46;;;;;;;;;;;;;;;1.38;30.93;100714.69;5018317;28;20635;-82
2022/01/25 13:48:14;;;;;;;;;;;;;;;1.34;30.30;100712.78;5022905;28;19991;-83
2022/01/25 13:50:40;;;;;;;;;;;;;;;1.27;30.07;100715.97;5023131;28;19952;-83
2022/01/25 13:53:07;;;;;;;;;;;;;;;1.60;30.61;100712.06;5026275;28;19917;-83
2022/01/25 13:55:32;;;;;;;;;;;;;;;1.73;30.24;100709.91;5024262;28;20395;-83
2022/01/25 13:57:57;;;;;;;;;;;;;;;1.66;30.64;100703.59;5023495;28;19920;-83
2022/01/25 14:00:23;;;;;;;;;;;;;;;1.82;30.23;100706.78;5026677;28;19928;-83
2022/01/25 14:02:51;;;;;;;;;;;;;;;2.09;30.09;100702.56;5026515;28;20016;-84
2022/01/25 14:05:16;;;;;;;;;;;;;;;2.10;29.75;100709.56;5025781;28;19909;-84
2022/01/25 14:07:42;;;;;;;;;;;;;;;1.58;30.29;100705.91;5025463;28;19913;-82
2022/01/25 14:10:10;;;;;;;;;;;;;;;1.35;29.76;100706.78;5058048;28;20338;-82
2022/01/25 14:23:44;;;;;;;;;;;;;;;1.58;31.42;100711.13;5026653;28;19963;-82
2022/01/25 14:26:11;;;;;;;;;;;;;;;1.41;30.36;100704.41;5026606;28;19909;-84
2022/01/25 14:28:41;;;;;;;;;;;;;;;1.22;29.79;100706.28;5025649;28;19971;-84
2022/01/25 14:31:13;;;;;;;;;;;;;;;1.10;30.37;100703.22;5024414;28;20351;-81
2022/01/25 14:33:39;;;;;;;;;;;;;;;1.05;30.14;100713.44;5026241;28;20373;-83
2022/01/25 14:36:08;;;;;;;;;;;;;;;1.11;30.45;100717.97;5029497;28;19947;-82
2022/01/25 14:38:35;;;;;;;;;;;;;;;1.20;30.86;100707.94;5030467;28;19913;-82
2022/01/25 14:41:03;;;;;;;;;;;;;;;1.18;30.23;100711.31;5030322;28;19917;-82